createdAt,value
2018-08-23T00:01:20.026Z,20.67
2018-08-23T00:03:49.236Z,20.66
2018-08-23T00:06:18.466Z,20.63
2018-08-23T00:08:48.287Z,20.57
2018-08-23T00:11:21.924Z,20.57
2018-08-23T00:13:51.228Z,20.54
2018-08-23T00:16:30.342Z,20.49
2018-08-23T00:18:59.535Z,20.37
2018-08-23T00:21:29.107Z,20.26
2018-08-23T00:24:19.282Z,20.19
2018-08-23T00:26:55.422Z,20.16
2018-08-23T00:29:27.577Z,20.16
2018-08-23T00:32:02.346Z,20.12
2018-08-23T00:34:33.893Z,20.05
2018-08-23T00:37:03.239Z,20.04
2018-08-23T00:39:32.518Z,19.99
2018-08-23T00:42:12.900Z,19.92
2018-08-23T00:44:57.253Z,19.83
2018-08-23T00:47:28.939Z,19.84
2018-08-23T00:49:58.296Z,19.83
2018-08-23T00:52:38.376Z,19.81
2018-08-23T00:55:30.004Z,19.78
2018-08-23T00:57:59.395Z,19.69
2018-08-23T01:00:29.204Z,19.68
2018-08-23T01:03:02.558Z,19.68
2018-08-23T01:05:40.894Z,19.68
2018-08-23T01:08:10.187Z,19.67
2018-08-23T01:10:40.341Z,19.63
2018-08-23T01:13:09.560Z,19.59
2018-08-23T01:15:39.058Z,19.54
2018-08-23T01:18:12.602Z,19.49
2018-08-23T01:20:42.659Z,19.44
2018-08-23T01:23:11.914Z,19.46
2018-08-23T01:25:42.295Z,19.43
2018-08-23T01:28:11.685Z,19.42
2018-08-23T01:30:41.375Z,19.35
2018-08-23T01:33:16.770Z,19.26
2018-08-23T01:35:48.724Z,19.16
2018-08-23T01:38:18.229Z,19.13
2018-08-23T01:40:47.460Z,19.11
2018-08-23T01:43:16.680Z,19.12
2018-08-23T01:45:45.951Z,19.17
2018-08-23T01:48:15.135Z,19.19
2018-08-23T01:50:44.487Z,19.17
2018-08-23T01:53:13.726Z,19.16
2018-08-23T01:55:42.916Z,19.18
2018-08-23T01:58:12.369Z,19.18
2018-08-23T02:00:41.553Z,19.17
2018-08-23T02:03:11.775Z,18.98
2018-08-23T02:05:43.084Z,19.08
2018-08-23T02:08:12.296Z,18.96
2018-08-23T02:10:41.499Z,18.92
2018-08-23T02:13:15.666Z,18.90
2018-08-23T02:15:50.756Z,18.84
2018-08-23T02:18:20.003Z,18.79
2018-08-23T02:20:54.339Z,18.79
2018-08-23T02:23:23.805Z,18.82
2018-08-23T02:25:53.224Z,18.82
2018-08-23T02:28:22.388Z,18.83
2018-08-23T02:30:52.758Z,18.84
2018-08-23T02:33:21.948Z,18.82
2018-08-23T02:36:03.543Z,18.81
2018-08-23T02:38:32.890Z,18.80
2018-08-23T02:41:02.052Z,18.77
2018-08-23T02:43:31.300Z,18.71
2018-08-23T02:46:03.050Z,18.64
2018-08-23T02:48:32.250Z,18.63
2018-08-23T02:51:01.468Z,18.63
2018-08-23T02:53:35.702Z,18.65
2018-08-23T02:56:06.963Z,18.60
2018-08-23T02:59:02.227Z,18.58
2018-08-23T03:01:32.637Z,18.54
2018-08-23T03:04:14.917Z,18.51
2018-08-23T03:06:50.307Z,18.45
2018-08-23T03:09:51.966Z,18.41
2018-08-23T03:12:21.230Z,18.42
2018-08-23T03:14:50.543Z,18.42
2018-08-23T03:18:22.650Z,18.41
2018-08-23T03:21:02.065Z,18.37
2018-08-23T03:23:31.281Z,18.35
2018-08-23T03:26:00.518Z,18.34
2018-08-23T03:28:29.848Z,18.33
2018-08-23T03:31:01.950Z,18.33
2018-08-23T03:33:32.756Z,18.31
2018-08-23T03:36:01.946Z,18.29
2018-08-23T03:38:31.310Z,18.26
2018-08-23T03:41:00.514Z,18.26
2018-08-23T03:43:29.689Z,18.23
2018-08-23T03:45:59.894Z,18.23
2018-08-23T03:48:29.097Z,18.22
2018-08-23T03:50:58.358Z,18.20
2018-08-23T03:53:42.667Z,18.15
2018-08-23T03:56:11.936Z,18.13
2018-08-23T03:58:41.098Z,18.13
2018-08-23T04:01:13.761Z,18.15
2018-08-23T04:03:43.185Z,18.14
2018-08-23T04:06:25.049Z,18.13
2018-08-23T04:08:54.259Z,18.06
2018-08-23T04:11:23.450Z,18.03
2018-08-23T04:13:52.681Z,18.05
2018-08-23T04:16:29.377Z,18.08
2018-08-23T04:18:58.588Z,18.14
2018-08-23T04:21:28.755Z,18.19
2018-08-23T04:23:58.365Z,18.26
2018-08-23T04:26:28.045Z,18.30
2018-08-23T04:28:57.290Z,18.34
2018-08-23T04:31:26.458Z,18.40
2018-08-23T04:33:55.768Z,18.46
2018-08-23T04:36:31.135Z,18.49
2018-08-23T04:39:01.454Z,18.55
2018-08-23T04:41:31.869Z,18.53
2018-08-23T04:44:03.827Z,18.47
2018-08-23T04:46:33.604Z,18.47
2018-08-23T04:49:05.050Z,18.51
2018-08-23T04:51:35.045Z,18.58
2018-08-23T04:54:04.348Z,18.63
2018-08-23T04:56:33.643Z,18.68
2018-08-23T04:59:02.784Z,18.78
2018-08-23T05:01:32.005Z,18.90
2018-08-23T05:04:01.249Z,18.93
2018-08-23T05:06:30.498Z,18.98
2018-08-23T05:08:59.682Z,18.99
2018-08-23T05:11:28.861Z,19.01
2018-08-23T05:13:58.224Z,19.01
2018-08-23T05:16:27.417Z,19.02
2018-08-23T05:18:56.616Z,19.03
2018-08-23T05:21:25.884Z,19.04
2018-08-23T05:23:59.425Z,19.07
2018-08-23T05:26:28.700Z,19.13
2018-08-23T05:29:02.596Z,19.19
2018-08-23T05:31:32.810Z,19.28
2018-08-23T05:34:04.634Z,19.34
2018-08-23T05:36:33.901Z,19.43
2018-08-23T05:39:04.785Z,19.56
2018-08-23T05:41:34.003Z,19.65
2018-08-23T05:44:13.053Z,19.71
2018-08-23T05:46:49.160Z,19.76
2018-08-23T05:49:18.503Z,19.88
2018-08-23T05:51:47.810Z,20.01
2018-08-23T05:54:17.142Z,20.11
2018-08-23T05:56:47.168Z,20.23
2018-08-23T05:59:17.715Z,20.35
2018-08-23T06:01:47.772Z,20.49
2018-08-23T06:04:18.475Z,20.55
2018-08-23T06:06:47.709Z,20.64
2018-08-23T06:09:17.077Z,20.75
2018-08-23T06:11:46.239Z,20.85
2018-08-23T06:14:15.571Z,21.02
2018-08-23T06:17:01.381Z,21.21
2018-08-23T06:19:30.779Z,21.32
2018-08-23T06:22:00.052Z,21.42
2018-08-23T06:24:30.279Z,21.52
2018-08-23T06:27:02.054Z,21.58
2018-08-23T06:29:34.957Z,21.63
2018-08-23T06:32:10.128Z,21.76
2018-08-23T06:34:51.217Z,21.86
2018-08-23T06:37:21.626Z,21.92
2018-08-23T06:39:50.792Z,21.96
2018-08-23T06:42:20.129Z,22.07
2018-08-23T06:44:54.481Z,22.18
2018-08-23T06:47:25.217Z,22.31
2018-08-23T06:49:55.071Z,22.44
2018-08-23T06:52:36.359Z,22.51
2018-08-23T06:55:05.967Z,22.68
2018-08-23T06:57:40.621Z,22.65
2018-08-23T07:00:09.967Z,22.72
2018-08-23T07:02:44.357Z,22.92
2018-08-23T07:05:13.615Z,23.09
2018-08-23T07:07:42.793Z,23.14
2018-08-23T07:10:12.854Z,23.24
2018-08-23T07:12:42.062Z,23.29
2018-08-23T07:15:12.033Z,23.29
2018-08-23T07:17:41.326Z,23.37
2018-08-23T07:20:17.070Z,23.48
2018-08-23T07:22:46.286Z,23.55
2018-08-23T07:25:16.794Z,23.76
2018-08-23T07:27:46.038Z,23.89
2018-08-23T07:30:17.514Z,24.04
2018-08-23T07:32:48.014Z,24.14
2018-08-23T07:35:19.633Z,24.23
2018-08-23T07:37:50.866Z,24.15
2018-08-23T07:40:21.231Z,24.15
2018-08-23T07:42:51.539Z,24.16
2018-08-23T07:45:20.722Z,24.14
2018-08-23T07:47:54.043Z,24.27
2018-08-23T07:50:23.263Z,24.38
2018-08-23T07:52:53.911Z,24.49
2018-08-23T07:55:23.013Z,24.64
2018-08-23T07:57:52.179Z,24.85
2018-08-23T08:00:38.069Z,24.93
2018-08-23T08:03:08.097Z,25.18
2018-08-23T08:05:38.644Z,25.43
2018-08-23T08:08:08.889Z,25.53
2018-08-23T08:10:39.646Z,25.57
2018-08-23T08:13:08.988Z,25.51
2018-08-23T08:15:38.285Z,25.69
2018-08-23T08:18:15.518Z,25.78
2018-08-23T08:21:15.006Z,25.85
2018-08-23T08:23:44.658Z,26.23
2018-08-23T08:26:13.904Z,26.32
2018-08-23T08:28:43.102Z,26.48
2018-08-23T08:31:12.353Z,26.53
2018-08-23T08:33:41.560Z,26.47
2018-08-23T08:36:10.857Z,26.48
2018-08-23T08:38:40.252Z,26.57
2018-08-23T08:41:09.564Z,26.70
2018-08-23T08:43:39.483Z,26.92
2018-08-23T08:46:08.733Z,27.03
2018-08-23T08:48:37.903Z,27.36
2018-08-23T08:51:28.769Z,27.53
2018-08-23T08:53:58.998Z,27.74
2018-08-23T08:56:35.198Z,28.00
2018-08-23T08:59:04.458Z,28.12
2018-08-23T09:01:33.686Z,28.27
2018-08-23T09:04:03.097Z,28.55
2018-08-23T09:06:37.429Z,28.57
2018-08-23T09:09:15.982Z,28.62
2018-08-23T09:11:45.232Z,28.70
2018-08-23T09:14:14.549Z,29.03
2018-08-23T09:16:43.833Z,29.26
2018-08-23T09:19:13.060Z,29.34
2018-08-23T09:21:42.294Z,29.58
2018-08-23T09:24:25.966Z,29.62
2018-08-23T09:26:55.431Z,29.97
2018-08-23T09:29:35.206Z,30.18
2018-08-23T09:32:13.706Z,30.18
2018-08-23T09:34:43.032Z,30.14
2018-08-23T09:37:12.293Z,30.24
2018-08-23T09:39:41.562Z,30.26
2018-08-23T09:42:11.433Z,30.29
2018-08-23T09:44:53.432Z,30.48
2018-08-23T09:47:22.665Z,30.55
2018-08-23T09:49:51.929Z,30.88
2018-08-23T09:52:24.946Z,31.27
2018-08-23T09:54:54.155Z,31.23
2018-08-23T09:57:23.901Z,31.17
2018-08-23T09:59:55.061Z,31.13
2018-08-23T10:02:29.415Z,31.26
2018-08-23T10:05:04.397Z,31.69
2018-08-23T10:07:38.723Z,32.14
2018-08-23T10:10:13.178Z,32.02
2018-08-23T10:12:47.758Z,32.23
2018-08-23T10:15:22.015Z,32.58
2018-08-23T10:17:56.369Z,32.76
2018-08-23T10:20:30.942Z,32.86
2018-08-23T10:23:05.172Z,33.10
2018-08-23T10:25:43.347Z,33.08
2018-08-23T10:28:16.322Z,32.70
2018-08-23T10:30:45.817Z,32.97
2018-08-23T10:33:15.089Z,33.24
2018-08-23T10:35:49.670Z,33.25
2018-08-23T10:38:20.408Z,33.37
2018-08-23T10:40:50.621Z,33.09
2018-08-23T10:43:24.928Z,33.03
2018-08-23T10:45:54.424Z,32.70
2018-08-23T10:48:24.353Z,32.71
2018-08-23T10:50:53.650Z,32.60
2018-08-23T10:53:22.940Z,32.68
2018-08-23T10:55:53.758Z,32.82
2018-08-23T10:58:23.019Z,32.77
2018-08-23T11:00:52.197Z,32.87
2018-08-23T11:03:21.392Z,32.95
2018-08-23T11:05:51.395Z,33.01
2018-08-23T11:08:25.673Z,33.03
2018-08-23T11:11:00.067Z,33.27
2018-08-23T11:13:34.400Z,33.27
2018-08-23T11:16:08.947Z,33.18
2018-08-23T11:18:43.578Z,33.11
2018-08-23T11:21:17.585Z,33.50
2018-08-23T11:23:47.248Z,33.59
2018-08-23T11:26:21.654Z,33.69
2018-08-23T11:28:51.285Z,33.85
2018-08-23T11:31:25.667Z,33.99
2018-08-23T11:33:54.990Z,33.93
2018-08-23T11:36:24.241Z,33.83
2018-08-23T11:38:53.522Z,33.66
2018-08-23T11:41:22.738Z,33.37
2018-08-23T11:43:52.059Z,32.87
2018-08-23T11:46:22.218Z,32.42
2018-08-23T11:48:51.462Z,32.02
2018-08-23T11:51:20.779Z,31.64
2018-08-23T11:53:50.072Z,31.42
2018-08-23T11:56:19.241Z,31.27
2018-08-23T11:58:48.607Z,31.09
2018-08-23T12:01:18.181Z,30.94
2018-08-23T12:03:47.432Z,30.86
2018-08-23T12:06:17.514Z,30.75
2018-08-23T12:08:47.237Z,30.77
2018-08-23T12:11:16.470Z,30.78
2018-08-23T12:13:48.577Z,30.86
2018-08-23T12:16:17.791Z,30.85
2018-08-23T12:18:47.076Z,30.95
2018-08-23T12:21:17.376Z,30.85
2018-08-23T12:23:46.872Z,30.83
2018-08-23T12:26:17.559Z,30.95
2018-08-23T12:28:53.116Z,30.75
2018-08-23T12:31:23.877Z,30.64
2018-08-23T12:33:54.166Z,30.54
2018-08-23T12:36:30.215Z,30.50
2018-08-23T12:39:04.591Z,30.34
2018-08-23T12:41:39.329Z,30.22
2018-08-23T12:44:13.386Z,30.20
2018-08-23T12:46:42.697Z,30.19
2018-08-23T12:49:11.909Z,30.09
2018-08-23T12:51:41.102Z,30.02
2018-08-23T12:54:10.334Z,29.97
2018-08-23T12:56:39.774Z,29.93
2018-08-23T12:59:09.042Z,29.88
2018-08-23T13:01:38.222Z,29.91
2018-08-23T13:04:07.676Z,30.07
2018-08-23T13:06:36.941Z,30.07
2018-08-23T13:09:07.678Z,30.15
2018-08-23T13:11:36.837Z,30.20
2018-08-23T13:14:06.191Z,30.25
2018-08-23T13:16:35.370Z,30.38
2018-08-23T13:19:04.685Z,30.47
2018-08-23T13:21:34.074Z,30.63
2018-08-23T13:24:03.307Z,30.89
2018-08-23T13:26:37.703Z,31.04
2018-08-23T13:29:07.137Z,31.25
2018-08-23T13:31:36.353Z,31.54
2018-08-23T13:34:05.633Z,31.87
2018-08-23T13:36:34.890Z,32.07
2018-08-23T13:39:04.921Z,32.34
2018-08-23T13:41:34.201Z,32.57
2018-08-23T13:44:03.419Z,32.77
2018-08-23T13:46:32.694Z,32.81
2018-08-23T13:49:02.238Z,32.77
2018-08-23T13:51:31.657Z,32.89
2018-08-23T13:54:00.974Z,32.81
2018-08-23T13:56:30.084Z,32.87
2018-08-23T13:58:59.352Z,33.00
2018-08-23T14:01:29.573Z,33.09
2018-08-23T14:03:58.969Z,33.13
2018-08-23T14:06:28.277Z,33.15
2018-08-23T14:08:57.457Z,33.19
2018-08-23T14:11:26.672Z,33.06
2018-08-23T14:13:56.340Z,33.11
2018-08-23T14:16:25.734Z,32.90
2018-08-23T14:18:55.021Z,32.96
2018-08-23T14:21:24.287Z,33.11
2018-08-23T14:23:53.514Z,33.13
2018-08-23T14:26:22.818Z,33.19
2018-08-23T14:28:52.029Z,33.10
2018-08-23T14:31:21.352Z,33.07
2018-08-23T14:33:50.695Z,33.05
2018-08-23T14:36:19.934Z,33.11
2018-08-23T14:38:49.179Z,33.16
2018-08-23T14:41:18.393Z,33.11
2018-08-23T14:43:47.614Z,32.97
2018-08-23T14:46:21.923Z,32.95
2018-08-23T14:48:51.088Z,32.90
2018-08-23T14:51:20.395Z,32.92
2018-08-23T14:53:49.717Z,33.09
2018-08-23T14:56:24.168Z,33.10
2018-08-23T14:58:53.544Z,33.17
2018-08-23T15:01:22.811Z,33.25
2018-08-23T15:03:52.037Z,33.25
2018-08-23T15:06:21.261Z,33.24
2018-08-23T15:08:50.442Z,33.16
2018-08-23T15:11:23.723Z,33.12
2018-08-23T15:13:52.927Z,32.91
2018-08-23T15:16:22.098Z,32.87
2018-08-23T15:18:51.338Z,32.84
2018-08-23T15:21:20.626Z,32.72
2018-08-23T15:23:49.870Z,32.72
2018-08-23T15:26:19.241Z,32.70
2018-08-23T15:28:48.318Z,32.63
2018-08-23T15:31:17.534Z,32.62
2018-08-23T15:33:46.866Z,32.80
2018-08-23T15:36:16.047Z,32.87
2018-08-23T15:38:45.226Z,32.81
2018-08-23T15:41:14.532Z,32.71
2018-08-23T15:43:43.815Z,32.74
2018-08-23T15:46:13.083Z,32.72
2018-08-23T15:48:42.388Z,32.71
2018-08-23T15:51:11.598Z,32.73
2018-08-23T15:53:40.823Z,32.74
2018-08-23T15:56:10.178Z,32.86
2018-08-23T15:58:39.472Z,32.83
2018-08-23T16:01:08.749Z,32.72
2018-08-23T16:03:38.077Z,32.57
2018-08-23T16:06:07.332Z,32.56
2018-08-23T16:08:41.732Z,32.59
2018-08-23T16:11:11.438Z,32.55
2018-08-23T16:13:40.678Z,32.53
2018-08-23T16:16:15.284Z,32.50
2018-08-23T16:18:49.573Z,32.39
2018-08-23T16:21:22.931Z,32.39
2018-08-23T16:23:52.150Z,32.35
2018-08-23T16:26:21.409Z,32.34
2018-08-23T16:28:50.649Z,32.39
2018-08-23T16:31:19.872Z,32.39
2018-08-23T16:33:49.188Z,32.23
2018-08-23T16:36:18.425Z,32.04
2018-08-23T16:38:47.589Z,32.08
2018-08-23T16:41:16.789Z,32.03
2018-08-23T16:43:45.974Z,32.08
2018-08-23T16:46:15.238Z,32.05
2018-08-23T16:48:44.609Z,31.96
2018-08-23T16:51:13.857Z,31.75
2018-08-23T16:53:43.548Z,31.52
2018-08-23T16:56:12.807Z,31.55
2018-08-23T16:58:42.193Z,31.45
2018-08-23T17:01:11.360Z,31.29
2018-08-23T17:03:41.098Z,31.25
2018-08-23T17:06:10.340Z,31.14
2018-08-23T17:08:40.085Z,31.03
2018-08-23T17:11:09.365Z,30.89
2018-08-23T17:13:38.609Z,30.78
2018-08-23T17:16:12.960Z,30.63
2018-08-23T17:18:42.205Z,30.48
2018-08-23T17:21:11.413Z,30.30
2018-08-23T17:23:40.634Z,30.16
2018-08-23T17:26:09.846Z,30.08
2018-08-23T17:28:39.065Z,30.06
2018-08-23T17:31:08.728Z,30.03
2018-08-23T17:33:37.926Z,29.97
2018-08-23T17:36:07.154Z,29.79
2018-08-23T17:38:36.316Z,29.62
2018-08-23T17:41:05.621Z,29.43
2018-08-23T17:43:34.806Z,29.26
2018-08-23T17:46:04.073Z,29.06
2018-08-23T17:48:34.312Z,28.87
2018-08-23T17:51:03.513Z,28.74
2018-08-23T17:53:32.663Z,28.60
2018-08-23T17:56:01.955Z,28.54
2018-08-23T17:58:31.174Z,28.46
2018-08-23T18:01:00.548Z,28.38
2018-08-23T18:03:29.751Z,28.31
2018-08-23T18:05:58.983Z,28.19
2018-08-23T18:08:28.515Z,28.07
2018-08-23T18:10:57.749Z,27.97
2018-08-23T18:13:27.444Z,27.83
2018-08-23T18:16:01.831Z,27.76
2018-08-23T18:18:31.073Z,27.73
2018-08-23T18:21:00.352Z,27.65
2018-08-23T18:23:30.338Z,27.57
2018-08-23T18:25:59.606Z,27.48
2018-08-23T18:28:28.811Z,27.36
2018-08-23T18:30:58.774Z,27.26
2018-08-23T18:33:28.051Z,27.09
2018-08-23T18:35:57.254Z,26.94
2018-08-23T18:38:26.481Z,26.94
2018-08-23T18:40:55.643Z,26.82
2018-08-23T18:43:24.927Z,26.74
2018-08-23T18:45:55.472Z,26.69
2018-08-23T18:48:24.638Z,26.64
2018-08-23T18:50:53.857Z,26.63
2018-08-23T18:53:23.067Z,26.59
2018-08-23T18:55:52.383Z,26.53
2018-08-23T18:58:21.601Z,26.46
2018-08-23T19:00:50.820Z,26.46
2018-08-23T19:03:20.102Z,26.47
2018-08-23T19:05:49.336Z,26.44
2018-08-23T19:08:18.569Z,26.32
2018-08-23T19:10:47.816Z,26.25
2018-08-23T19:13:17.124Z,26.18
2018-08-23T19:15:51.499Z,26.12
2018-08-23T19:18:20.738Z,25.99
2018-08-23T19:20:50.010Z,25.87
2018-08-23T19:23:19.366Z,25.77
2018-08-23T19:25:48.529Z,25.65
2018-08-23T19:28:17.778Z,25.50
2018-08-23T19:30:47.036Z,25.35
2018-08-23T19:33:16.286Z,25.18
2018-08-23T19:35:45.544Z,25.05
2018-08-23T19:38:16.433Z,24.92
2018-08-23T19:40:45.664Z,24.86
2018-08-23T19:43:14.938Z,24.70
2018-08-23T19:45:49.229Z,24.63
2018-08-23T19:48:18.657Z,24.58
2018-08-23T19:50:47.902Z,24.53
2018-08-23T19:53:17.150Z,24.49
2018-08-23T19:55:46.347Z,24.48
2018-08-23T19:58:15.605Z,24.43
2018-08-23T20:00:44.846Z,24.38
2018-08-23T20:03:14.170Z,24.31
2018-08-23T20:05:43.360Z,24.25
2018-08-23T20:08:12.545Z,24.20
2018-08-23T20:10:41.713Z,24.16
2018-08-23T20:13:10.979Z,24.12
2018-08-23T20:15:41.266Z,23.98
2018-08-23T20:18:10.558Z,23.93
2018-08-23T20:20:39.806Z,23.88
2018-08-23T20:23:09.197Z,23.83
2018-08-23T20:25:38.440Z,23.82
2018-08-23T20:28:07.765Z,23.83
2018-08-23T20:30:37.665Z,23.79
2018-08-23T20:33:07.105Z,23.76
2018-08-23T20:35:36.278Z,23.75
2018-08-23T20:38:05.602Z,23.80
2018-08-23T20:40:34.807Z,23.94
2018-08-23T20:43:04.027Z,24.04
2018-08-23T20:45:33.448Z,24.24
2018-08-23T20:48:02.616Z,24.56
2018-08-23T20:50:31.779Z,24.73
2018-08-23T20:53:01.455Z,24.82
2018-08-23T20:55:30.676Z,24.99
2018-08-23T20:57:59.970Z,25.06
2018-08-23T21:00:29.178Z,25.08
2018-08-23T21:02:58.370Z,24.98
2018-08-23T21:05:27.546Z,24.93
2018-08-23T21:07:56.802Z,24.92
2018-08-23T21:10:26.002Z,24.91
2018-08-23T21:12:55.254Z,24.81
2018-08-23T21:15:24.510Z,24.76
2018-08-23T21:17:54.852Z,24.57
2018-08-23T21:20:24.033Z,24.49
2018-08-23T21:22:53.269Z,24.39
2018-08-23T21:25:22.494Z,24.35
2018-08-23T21:27:51.718Z,24.26
2018-08-23T21:30:21.282Z,24.30
2018-08-23T21:32:50.502Z,24.22
2018-08-23T21:35:19.658Z,24.15
2018-08-23T21:37:48.868Z,24.04
2018-08-23T21:40:18.670Z,23.95
2018-08-23T21:42:47.872Z,23.86
2018-08-23T21:45:17.135Z,23.74
2018-08-23T21:47:46.400Z,23.76
2018-08-23T21:50:15.749Z,23.83
2018-08-23T21:52:44.976Z,23.76
2018-08-23T21:55:14.403Z,23.72
2018-08-23T21:57:43.560Z,23.69
2018-08-23T22:00:12.929Z,23.73
2018-08-23T22:02:42.157Z,23.61
2018-08-23T22:05:11.678Z,23.65
2018-08-23T22:07:40.882Z,23.57
2018-08-23T22:10:10.164Z,23.52
2018-08-23T22:12:39.349Z,23.59
2018-08-23T22:15:08.703Z,23.43
2018-08-23T22:17:37.952Z,23.41
2018-08-23T22:20:07.215Z,23.28
2018-08-23T22:22:36.485Z,23.24
2018-08-23T22:25:05.931Z,23.18
2018-08-23T22:27:35.597Z,23.11
2018-08-23T22:30:05.081Z,23.08
2018-08-23T22:32:34.287Z,23.03
2018-08-23T22:35:03.467Z,23.12
2018-08-23T22:37:32.859Z,23.01
2018-08-23T22:40:02.062Z,22.95
2018-08-23T22:42:31.311Z,22.96
2018-08-23T22:45:01.106Z,22.90
2018-08-23T22:47:30.444Z,22.89
2018-08-23T22:49:59.710Z,22.87
2018-08-23T22:52:29.137Z,22.93
2018-08-23T22:54:58.330Z,22.97
2018-08-23T22:57:27.567Z,22.92
2018-08-23T22:59:56.795Z,22.94
2018-08-23T23:02:31.182Z,22.88
2018-08-23T23:05:00.390Z,22.90
2018-08-23T23:07:29.630Z,22.94
2018-08-23T23:09:58.853Z,22.91
2018-08-23T23:12:28.446Z,22.89
2018-08-23T23:14:57.741Z,22.77
2018-08-23T23:17:27.240Z,22.72
2018-08-23T23:19:56.568Z,22.67
2018-08-23T23:22:25.729Z,22.60
2018-08-23T23:25:00.854Z,22.57
2018-08-23T23:27:30.680Z,22.54
2018-08-23T23:30:00.399Z,22.54
2018-08-23T23:32:29.610Z,22.49
2018-08-23T23:34:59.032Z,22.43
2018-08-23T23:37:28.288Z,22.39
2018-08-23T23:39:57.507Z,22.36
2018-08-23T23:42:26.681Z,22.35
2018-08-23T23:44:56.238Z,22.29
2018-08-23T23:47:25.434Z,22.26
2018-08-23T23:49:54.806Z,22.21
2018-08-23T23:52:24.011Z,22.13
2018-08-23T23:54:53.271Z,22.09
2018-08-23T23:57:22.467Z,22.03
2018-08-23T23:59:51.661Z,21.96
